createdAt,value
2023-03-16T00:01:13.724Z,2.60
2023-03-16T00:03:41.326Z,2.60
2023-03-16T00:06:08.874Z,2.80
2023-03-16T00:08:36.392Z,2.70
2023-03-16T00:11:04.715Z,2.60
2023-03-16T00:13:32.249Z,2.60
2023-03-16T00:15:59.802Z,2.50
2023-03-16T00:18:30.253Z,2.50
2023-03-16T00:21:00.447Z,2.50
2023-03-16T00:23:27.995Z,2.40
2023-03-16T00:25:55.899Z,2.40
2023-03-16T00:28:24.276Z,2.30
2023-03-16T00:30:51.721Z,2.30
2023-03-16T00:33:19.578Z,2.30
2023-03-16T00:35:47.158Z,2.30
2023-03-16T00:38:14.660Z,2.30
2023-03-16T00:40:43.577Z,2.20
2023-03-16T00:43:11.101Z,2.20
2023-03-16T00:45:39.456Z,2.20
2023-03-16T00:48:06.983Z,2.20
2023-03-16T00:50:34.502Z,2.20
2023-03-16T00:53:02.799Z,2.20
2023-03-16T00:55:30.364Z,2.20
2023-03-16T00:57:57.892Z,2.20
2023-03-16T01:00:26.441Z,2.20
2023-03-16T01:02:53.808Z,2.20
2023-03-16T01:05:21.297Z,2.20
2023-03-16T01:07:49.578Z,2.20
2023-03-16T01:10:17.460Z,2.20
2023-03-16T01:12:44.999Z,2.20
2023-03-16T01:15:13.300Z,2.20
2023-03-16T01:17:40.845Z,2.10
2023-03-16T01:20:08.454Z,2.20
2023-03-16T01:22:35.981Z,2.20
2023-03-16T01:25:03.558Z,2.20
2023-03-16T01:27:31.089Z,2.20
2023-03-16T01:29:59.458Z,2.20
2023-03-16T01:32:27.000Z,2.20
2023-03-16T01:34:54.508Z,2.20
2023-03-16T01:37:22.020Z,2.20
2023-03-16T01:39:50.351Z,2.20
2023-03-16T01:42:17.885Z,2.20
2023-03-16T01:44:51.226Z,2.20
2023-03-16T01:47:19.162Z,2.20
2023-03-16T01:49:46.711Z,2.20
2023-03-16T01:52:17.145Z,2.20
2023-03-16T01:54:50.716Z,2.20
2023-03-16T01:57:24.942Z,2.20
2023-03-16T01:59:58.104Z,2.20
2023-03-16T02:02:28.197Z,2.20
2023-03-16T02:04:58.463Z,2.30
2023-03-16T02:07:26.023Z,2.30
2023-03-16T02:09:53.554Z,2.30
2023-03-16T02:12:21.088Z,2.30
2023-03-16T02:14:48.647Z,2.30
2023-03-16T02:17:16.193Z,2.30
2023-03-16T02:20:04.748Z,2.40
2023-03-16T02:22:32.281Z,2.40
2023-03-16T02:24:59.825Z,2.40
2023-03-16T02:27:48.906Z,2.40
2023-03-16T02:30:16.427Z,2.40
2023-03-16T02:32:44.768Z,2.60
2023-03-16T02:35:12.299Z,2.60
2023-03-16T02:37:39.822Z,2.70
2023-03-16T02:40:17.416Z,2.60
2023-03-16T02:42:44.946Z,2.60
2023-03-16T02:45:12.489Z,2.60
2023-03-16T02:47:42.541Z,2.60
2023-03-16T02:50:10.073Z,2.60
2023-03-16T02:52:37.611Z,2.60
2023-03-16T02:55:05.172Z,2.60
2023-03-16T02:57:32.717Z,2.60
2023-03-16T03:00:00.229Z,2.60
2023-03-16T03:02:28.752Z,2.60
2023-03-16T03:04:56.185Z,2.60
2023-03-16T03:07:24.477Z,2.60
2023-03-16T03:09:52.839Z,2.60
2023-03-16T03:12:20.370Z,2.60
2023-03-16T03:14:47.952Z,2.60
2023-03-16T03:17:16.266Z,2.60
2023-03-16T03:19:43.781Z,2.50
2023-03-16T03:22:11.309Z,2.60
2023-03-16T03:24:38.872Z,2.60
2023-03-16T03:27:06.404Z,2.60
2023-03-16T03:29:36.840Z,2.60
2023-03-16T03:32:04.393Z,2.60
2023-03-16T03:34:31.931Z,2.60
2023-03-16T03:36:59.486Z,2.50
2023-03-16T03:39:27.809Z,2.50
2023-03-16T03:41:55.327Z,2.50
2023-03-16T03:44:23.625Z,2.40
2023-03-16T03:46:51.245Z,2.40
2023-03-16T03:49:18.720Z,2.40
2023-03-16T03:51:46.257Z,2.40
2023-03-16T03:54:14.577Z,2.40
2023-03-16T03:56:42.112Z,2.30
2023-03-16T03:59:10.410Z,2.90
2023-03-16T04:01:37.951Z,2.90
2023-03-16T04:04:06.054Z,2.90
2023-03-16T04:06:33.588Z,2.80
2023-03-16T04:09:01.186Z,2.80
2023-03-16T04:11:28.702Z,2.80
2023-03-16T04:13:57.002Z,2.70
2023-03-16T04:16:24.586Z,2.70
2023-03-16T04:18:52.101Z,2.70
2023-03-16T04:21:19.620Z,2.70
2023-03-16T04:23:47.194Z,2.70
2023-03-16T04:26:15.510Z,2.70
2023-03-16T04:28:43.029Z,2.70
2023-03-16T04:31:11.424Z,2.80
2023-03-16T04:33:38.877Z,2.80
2023-03-16T04:36:07.313Z,2.80
2023-03-16T04:38:34.852Z,2.80
2023-03-16T04:41:02.377Z,2.80
2023-03-16T04:43:29.914Z,2.80
2023-03-16T04:45:58.382Z,2.80
2023-03-16T04:48:25.850Z,2.80
2023-03-16T04:50:53.371Z,2.80
2023-03-16T04:53:20.993Z,2.80
2023-03-16T04:55:48.497Z,2.90
2023-03-16T04:58:16.036Z,2.80
2023-03-16T05:00:43.597Z,3.10
2023-03-16T05:03:11.130Z,3.10
2023-03-16T05:05:39.314Z,3.00
2023-03-16T05:08:06.830Z,3.00
2023-03-16T05:10:34.403Z,3.00
2023-03-16T05:13:02.703Z,2.90
2023-03-16T05:15:30.560Z,2.90
2023-03-16T05:17:58.092Z,2.90
2023-03-16T05:20:25.614Z,2.90
2023-03-16T05:22:53.770Z,2.90
2023-03-16T05:27:34.039Z,3.20
2023-03-16T05:30:01.709Z,3.20
2023-03-16T05:32:29.260Z,3.20
2023-03-16T05:34:57.537Z,3.20
2023-03-16T05:37:25.134Z,3.20
2023-03-16T05:39:52.667Z,3.10
2023-03-16T05:42:20.199Z,3.10
2023-03-16T05:44:47.810Z,3.10
2023-03-16T05:47:15.341Z,3.10
2023-03-16T05:49:42.858Z,3.10
2023-03-16T05:52:11.212Z,3.10
2023-03-16T05:54:38.736Z,3.10
2023-03-16T05:57:06.272Z,3.10
2023-03-16T05:59:33.872Z,3.10
2023-03-16T06:02:01.389Z,3.10
2023-03-16T06:04:29.743Z,3.10
2023-03-16T06:06:57.515Z,3.10
2023-03-16T06:09:25.827Z,3.00
2023-03-16T06:11:53.362Z,3.10
2023-03-16T06:14:20.946Z,3.10
2023-03-16T06:16:48.481Z,3.00
2023-03-16T06:19:16.009Z,3.00
2023-03-16T06:21:43.604Z,3.10
2023-03-16T06:24:11.900Z,3.40
2023-03-16T06:26:39.439Z,3.40
2023-03-16T06:29:07.013Z,3.50
2023-03-16T06:31:34.620Z,3.50
2023-03-16T06:34:02.846Z,3.70
2023-03-16T06:36:30.432Z,3.60
2023-03-16T06:38:57.977Z,3.70
2023-03-16T06:41:25.503Z,3.80
2023-03-16T06:43:53.867Z,3.80
2023-03-16T06:46:21.463Z,3.80
2023-03-16T06:48:48.932Z,3.90
2023-03-16T06:51:16.993Z,4.10
2023-03-16T06:53:44.053Z,4.20
2023-03-16T06:56:11.569Z,4.20
2023-03-16T06:58:39.908Z,4.30
2023-03-16T07:01:07.487Z,4.20
2023-03-16T07:03:34.991Z,4.30
2023-03-16T07:06:02.566Z,4.60
2023-03-16T07:08:30.109Z,4.60
2023-03-16T07:10:57.633Z,4.70
2023-03-16T07:13:25.967Z,4.70
2023-03-16T07:15:53.522Z,4.70
2023-03-16T07:18:21.052Z,4.70
2023-03-16T07:20:48.647Z,4.80
2023-03-16T07:23:16.179Z,4.80
2023-03-16T07:25:43.710Z,4.90
2023-03-16T07:28:12.088Z,5.00
2023-03-16T07:30:40.398Z,5.10
2023-03-16T07:33:07.210Z,5.10
2023-03-16T07:35:34.706Z,5.20
2023-03-16T07:38:02.253Z,5.30
2023-03-16T07:40:30.144Z,5.40
2023-03-16T07:42:58.146Z,5.50
2023-03-16T07:45:26.648Z,5.70
2023-03-16T07:47:54.752Z,5.80
2023-03-16T07:50:23.499Z,5.80
2023-03-16T07:52:51.790Z,5.90
2023-03-16T07:55:19.385Z,5.80
2023-03-16T07:57:46.939Z,5.90
2023-03-16T08:00:14.632Z,5.90
2023-03-16T08:02:42.209Z,6.00
2023-03-16T08:05:09.779Z,6.00
2023-03-16T08:07:37.299Z,6.00
2023-03-16T08:10:04.822Z,6.10
2023-03-16T08:12:32.538Z,6.10
2023-03-16T08:15:00.018Z,6.10
2023-03-16T08:17:28.330Z,6.20
2023-03-16T08:19:56.172Z,6.20
2023-03-16T08:22:23.717Z,6.30
2023-03-16T08:24:52.017Z,6.50
2023-03-16T08:27:19.594Z,6.40
2023-03-16T08:29:47.132Z,6.60
2023-03-16T08:32:14.655Z,6.60
2023-03-16T08:34:42.225Z,6.80
2023-03-16T08:37:10.531Z,7.00
2023-03-16T08:39:38.067Z,7.00
2023-03-16T08:42:06.458Z,7.20
2023-03-16T08:44:35.171Z,7.30
2023-03-16T08:47:03.430Z,7.40
2023-03-16T08:49:31.314Z,7.30
2023-03-16T08:51:58.836Z,7.50
2023-03-16T08:54:26.372Z,7.50
2023-03-16T08:56:53.955Z,7.70
2023-03-16T08:59:29.693Z,7.80
2023-03-16T09:01:49.832Z,7.80
2023-03-16T09:04:18.170Z,8.00
2023-03-16T09:06:46.506Z,8.00
2023-03-16T09:09:13.186Z,8.10
2023-03-16T09:11:40.761Z,8.30
2023-03-16T09:14:08.286Z,8.40
2023-03-16T09:16:36.696Z,8.50
2023-03-16T09:19:04.968Z,8.50
2023-03-16T09:21:32.503Z,8.50
2023-03-16T09:24:00.816Z,8.60
2023-03-16T09:26:28.412Z,8.60
2023-03-16T09:28:55.903Z,8.70
2023-03-16T09:31:24.229Z,8.80
2023-03-16T09:33:51.769Z,8.80
2023-03-16T09:36:19.408Z,8.80
2023-03-16T09:38:46.832Z,8.90
2023-03-16T09:41:33.072Z,9.00
2023-03-16T09:44:03.325Z,9.10
2023-03-16T09:46:45.756Z,9.40
2023-03-16T09:49:13.287Z,9.40
2023-03-16T09:51:43.749Z,9.50
2023-03-16T09:54:13.761Z,9.50
2023-03-16T09:56:41.308Z,9.80
2023-03-16T09:59:14.532Z,9.90
2023-03-16T10:02:01.424Z,10.10
2023-03-16T10:04:28.992Z,10.10
2023-03-16T10:06:56.494Z,10.10
2023-03-16T10:09:41.892Z,10.00
2023-03-16T10:12:09.425Z,10.10
2023-03-16T10:14:42.702Z,10.10
2023-03-16T10:17:16.024Z,10.20
2023-03-16T10:19:46.246Z,10.30
2023-03-16T10:22:22.660Z,10.30
2023-03-16T10:25:11.365Z,10.40
2023-03-16T10:27:38.967Z,10.40
2023-03-16T10:30:27.615Z,10.80
2023-03-16T10:32:55.129Z,10.90
2023-03-16T10:35:32.035Z,11.00
2023-03-16T10:37:59.621Z,11.00
2023-03-16T10:40:27.586Z,11.10
2023-03-16T10:42:54.693Z,11.10
2023-03-16T10:45:28.492Z,11.20
2023-03-16T10:47:55.758Z,11.30
2023-03-16T10:50:23.305Z,11.50
2023-03-16T10:52:51.507Z,11.70
2023-03-16T10:55:24.711Z,11.80
2023-03-16T10:57:52.212Z,11.90
2023-03-16T11:00:20.577Z,12.00
2023-03-16T11:02:50.966Z,11.90
2023-03-16T11:05:18.520Z,12.00
2023-03-16T11:07:51.912Z,12.20
2023-03-16T11:10:28.321Z,12.30
2023-03-16T11:13:00.328Z,12.20
2023-03-16T11:15:26.102Z,12.20
2023-03-16T11:17:51.709Z,12.20
2023-03-16T11:20:24.842Z,12.20
2023-03-16T11:22:52.403Z,12.20
2023-03-16T11:25:19.929Z,12.20
2023-03-16T11:28:06.333Z,12.30
2023-03-16T11:30:40.628Z,12.40
2023-03-16T11:33:08.197Z,12.40
2023-03-16T11:35:59.905Z,12.50
2023-03-16T11:38:33.224Z,12.80
2023-03-16T11:41:04.073Z,12.80
2023-03-16T11:44:08.970Z,12.80
2023-03-16T11:47:00.588Z,12.80
2023-03-16T11:49:30.861Z,12.90
2023-03-16T11:52:04.432Z,12.90
2023-03-16T11:54:44.076Z,12.90
2023-03-16T11:57:23.390Z,13.00
2023-03-16T12:00:01.233Z,13.00
2023-03-16T12:02:21.075Z,13.10
2023-03-16T12:04:48.552Z,13.10
2023-03-16T12:07:35.045Z,13.50
2023-03-16T12:10:26.555Z,13.50
2023-03-16T12:12:59.795Z,13.60
2023-03-16T12:15:33.031Z,13.60
2023-03-16T12:18:00.573Z,13.70
2023-03-16T12:20:28.203Z,13.60
2023-03-16T12:23:13.654Z,13.80
2023-03-16T12:25:42.052Z,13.80
2023-03-16T12:28:24.566Z,13.80
2023-03-16T12:31:19.532Z,13.90
2023-03-16T12:33:59.024Z,13.80
2023-03-16T12:36:50.713Z,13.90
2023-03-16T12:39:56.211Z,13.80
2023-03-16T12:42:47.932Z,13.80
2023-03-16T12:45:24.263Z,13.90
2023-03-16T12:48:05.465Z,13.90
2023-03-16T12:50:32.996Z,13.90
2023-03-16T12:53:01.289Z,13.90
2023-03-16T12:55:34.639Z,13.90
2023-03-16T12:58:02.162Z,14.00
2023-03-16T13:00:32.700Z,14.00
2023-03-16T13:03:00.256Z,14.00
2023-03-16T13:05:33.534Z,14.00
2023-03-16T13:08:16.468Z,14.00
2023-03-16T13:10:44.022Z,14.00
2023-03-16T13:13:11.572Z,14.00
2023-03-16T13:15:39.133Z,14.00
2023-03-16T13:18:09.339Z,14.00
2023-03-16T13:20:48.806Z,14.00
2023-03-16T13:23:19.235Z,14.00
2023-03-16T13:25:58.894Z,14.00
2023-03-16T13:28:27.125Z,14.00
2023-03-16T13:30:54.724Z,14.00
2023-03-16T13:33:25.699Z,13.90
2023-03-16T13:35:53.209Z,13.90
2023-03-16T13:38:20.730Z,13.90
2023-03-16T13:40:48.317Z,13.90
2023-03-16T13:43:15.838Z,14.00
2023-03-16T13:45:44.229Z,14.00
2023-03-16T13:48:14.908Z,14.00
2023-03-16T13:50:42.423Z,14.00
2023-03-16T13:53:21.572Z,14.10
2023-03-16T13:55:49.111Z,14.10
2023-03-16T13:58:25.397Z,14.20
2023-03-16T14:00:55.705Z,14.20
2023-03-16T14:03:23.167Z,14.30
2023-03-16T14:05:50.699Z,14.30
2023-03-16T14:08:19.042Z,14.40
2023-03-16T14:10:46.593Z,14.40
2023-03-16T14:13:35.026Z,14.40
2023-03-16T14:16:14.578Z,14.40
2023-03-16T14:18:42.102Z,14.40
2023-03-16T14:21:09.642Z,14.40
2023-03-16T14:23:37.952Z,14.50
2023-03-16T14:26:07.982Z,14.50
2023-03-16T14:28:35.557Z,14.60
2023-03-16T14:31:12.061Z,14.70
2023-03-16T14:33:39.563Z,14.70
2023-03-16T14:36:13.327Z,14.80
2023-03-16T14:38:40.905Z,14.80
2023-03-16T14:41:29.403Z,14.70
2023-03-16T14:43:59.756Z,14.70
2023-03-16T14:46:27.322Z,14.80
2023-03-16T14:48:57.484Z,14.70
2023-03-16T14:51:25.067Z,14.80
2023-03-16T14:53:52.592Z,14.80
2023-03-16T14:56:20.412Z,14.80
2023-03-16T14:58:47.996Z,14.80
2023-03-16T15:01:15.541Z,14.80
2023-03-16T15:03:43.053Z,14.80
2023-03-16T15:06:10.623Z,14.80
2023-03-16T15:08:38.156Z,15.00
2023-03-16T15:11:05.681Z,15.00
2023-03-16T15:13:47.053Z,14.90
2023-03-16T15:16:13.373Z,14.90
2023-03-16T15:18:40.900Z,14.80
2023-03-16T15:21:14.591Z,14.70
2023-03-16T15:23:42.099Z,14.90
2023-03-16T15:26:10.435Z,14.90
2023-03-16T15:28:38.777Z,14.90
2023-03-16T15:31:06.395Z,15.00
2023-03-16T15:33:33.882Z,15.00
2023-03-16T15:36:01.475Z,15.10
2023-03-16T15:38:31.726Z,15.10
2023-03-16T15:40:59.272Z,15.20
2023-03-16T15:43:26.827Z,15.20
2023-03-16T15:45:54.356Z,15.30
2023-03-16T15:48:22.646Z,15.30
2023-03-16T15:50:55.932Z,15.30
2023-03-16T15:53:35.261Z,15.20
2023-03-16T15:56:00.141Z,15.10
2023-03-16T15:58:28.501Z,14.80
2023-03-16T16:00:56.097Z,14.80
2023-03-16T16:03:23.595Z,14.90
2023-03-16T16:05:51.165Z,14.70
2023-03-16T16:08:18.688Z,14.60
2023-03-16T16:10:46.233Z,14.50
2023-03-16T16:13:24.821Z,14.70
2023-03-16T16:15:51.849Z,14.70
2023-03-16T16:18:24.964Z,14.60
2023-03-16T16:20:53.327Z,14.60
2023-03-16T16:23:20.836Z,14.60
2023-03-16T16:25:48.366Z,14.50
2023-03-16T16:28:15.969Z,14.70
2023-03-16T16:30:43.509Z,14.60
2023-03-16T16:33:22.923Z,14.40
2023-03-16T16:35:51.277Z,14.00
2023-03-16T16:38:18.772Z,14.00
2023-03-16T16:40:46.653Z,13.90
2023-03-16T16:43:32.497Z,13.70
2023-03-16T16:46:00.904Z,13.40
2023-03-16T16:48:34.275Z,13.40
2023-03-16T16:51:02.582Z,13.10
2023-03-16T16:53:30.151Z,13.10
2023-03-16T16:55:57.696Z,13.00
2023-03-16T16:58:25.251Z,12.90
2023-03-16T17:00:53.659Z,12.80
2023-03-16T17:03:21.126Z,12.80
2023-03-16T17:05:48.674Z,12.70
2023-03-16T17:08:16.314Z,12.70
2023-03-16T17:10:43.822Z,12.60
2023-03-16T17:13:32.812Z,12.60
2023-03-16T17:16:01.119Z,12.80
2023-03-16T17:18:28.652Z,12.80
2023-03-16T17:20:57.036Z,13.30
2023-03-16T17:23:30.050Z,13.30
2023-03-16T17:25:57.585Z,13.20
2023-03-16T17:28:25.147Z,13.00
2023-03-16T17:30:52.724Z,12.90
2023-03-16T17:33:20.987Z,12.60
2023-03-16T17:35:48.592Z,12.60
2023-03-16T17:38:16.094Z,12.60
2023-03-16T17:40:43.620Z,12.50
2023-03-16T17:43:11.203Z,12.30
2023-03-16T17:47:49.271Z,12.40
2023-03-16T17:50:22.665Z,12.40
2023-03-16T17:52:50.187Z,12.30
2023-03-16T17:55:17.728Z,12.20
2023-03-16T17:57:46.338Z,12.00
2023-03-16T18:00:19.851Z,12.00
2023-03-16T18:02:56.212Z,11.90
2023-03-16T18:05:30.202Z,11.80
2023-03-16T18:08:18.842Z,11.80
2023-03-16T18:10:47.183Z,11.60
2023-03-16T18:13:17.365Z,11.60
2023-03-16T18:15:44.981Z,11.60
2023-03-16T18:18:12.493Z,11.80
2023-03-16T18:20:40.028Z,11.70
2023-03-16T18:23:14.491Z,11.60
2023-03-16T18:25:42.007Z,11.50
2023-03-16T18:28:10.303Z,11.40
2023-03-16T18:30:37.921Z,11.40
2023-03-16T18:33:08.241Z,11.30
2023-03-16T18:35:38.368Z,11.50
2023-03-16T18:38:04.046Z,11.50
2023-03-16T18:40:31.752Z,11.40
2023-03-16T18:42:59.115Z,11.30
2023-03-16T18:45:27.725Z,11.20
2023-03-16T18:47:54.992Z,11.10
2023-03-16T18:50:22.525Z,11.10
2023-03-16T18:52:50.113Z,11.00
2023-03-16T18:55:17.675Z,11.00
2023-03-16T18:57:45.913Z,10.90
2023-03-16T19:00:23.486Z,10.80
2023-03-16T19:02:59.784Z,10.80
2023-03-16T19:05:28.591Z,10.50
2023-03-16T19:07:55.925Z,10.50
2023-03-16T19:10:23.453Z,10.50
2023-03-16T19:12:51.825Z,10.30
2023-03-16T19:15:19.383Z,10.30
2023-03-16T19:17:46.938Z,10.30
2023-03-16T19:20:14.500Z,10.20
2023-03-16T19:22:42.151Z,10.40
2023-03-16T19:25:09.694Z,10.40
2023-03-16T19:27:37.307Z,10.30
2023-03-16T19:30:04.837Z,10.50
2023-03-16T19:32:32.391Z,10.50
2023-03-16T19:34:59.994Z,10.40
2023-03-16T19:37:27.512Z,10.30
2023-03-16T19:39:55.047Z,10.20
2023-03-16T19:42:22.902Z,10.20
2023-03-16T19:44:50.469Z,10.20
2023-03-16T19:47:30.001Z,10.40
2023-03-16T19:49:57.525Z,10.40
2023-03-16T19:52:25.055Z,10.20
2023-03-16T19:54:52.641Z,10.10
2023-03-16T19:57:20.944Z,10.00
2023-03-16T19:59:51.245Z,10.00
2023-03-16T20:02:28.605Z,9.80
2023-03-16T20:04:56.155Z,9.80
2023-03-16T20:07:23.708Z,9.80
2023-03-16T20:09:51.301Z,9.70
2023-03-16T20:12:24.639Z,9.70
2023-03-16T20:14:52.161Z,9.60
2023-03-16T20:17:20.487Z,9.40
2023-03-16T20:19:48.012Z,9.40
2023-03-16T20:22:24.279Z,9.30
2023-03-16T20:24:51.847Z,9.30
2023-03-16T20:27:19.379Z,9.20
2023-03-16T20:29:47.673Z,9.10
2023-03-16T20:32:21.412Z,9.10
2023-03-16T20:34:48.937Z,9.00
2023-03-16T20:37:25.351Z,8.90
2023-03-16T20:39:53.280Z,8.80
2023-03-16T20:42:20.806Z,8.70
2023-03-16T20:44:49.110Z,8.60
2023-03-16T20:47:19.114Z,8.60
2023-03-16T20:49:46.649Z,8.50
2023-03-16T20:52:17.906Z,8.40
2023-03-16T20:54:46.270Z,8.30
2023-03-16T20:57:16.514Z,8.40
2023-03-16T20:59:44.050Z,8.30
2023-03-16T21:02:31.323Z,8.20
2023-03-16T21:04:58.902Z,8.20
2023-03-16T21:07:26.391Z,8.20
2023-03-16T21:09:54.733Z,8.00
2023-03-16T21:12:28.196Z,8.00
2023-03-16T21:14:58.697Z,8.00
2023-03-16T21:17:29.421Z,7.80
2023-03-16T21:19:57.717Z,7.80
2023-03-16T21:22:29.053Z,7.80
2023-03-16T21:24:56.567Z,7.80
2023-03-16T21:27:32.878Z,7.70
2023-03-16T21:30:01.534Z,7.60
2023-03-16T21:32:29.019Z,7.60
2023-03-16T21:34:56.538Z,7.60
2023-03-16T21:37:26.796Z,7.50
2023-03-16T21:39:55.118Z,7.40
2023-03-16T21:42:22.645Z,7.40
2023-03-16T21:44:50.964Z,7.40
2023-03-16T21:47:27.239Z,7.30
2023-03-16T21:49:54.762Z,7.30
2023-03-16T21:52:25.994Z,7.20
2023-03-16T21:54:53.516Z,7.20
2023-03-16T21:57:21.054Z,7.20
2023-03-16T21:59:48.624Z,7.10
2023-03-16T22:02:19.218Z,7.30
2023-03-16T22:04:46.684Z,7.40
2023-03-16T22:07:14.287Z,7.60
2023-03-16T22:09:41.800Z,7.60
2023-03-16T22:12:09.468Z,7.40
2023-03-16T22:14:37.033Z,7.40
2023-03-16T22:17:04.554Z,7.30
2023-03-16T22:19:32.088Z,7.20
2023-03-16T22:22:00.452Z,6.90
2023-03-16T22:24:27.953Z,7.00
2023-03-16T22:26:55.500Z,6.90
2023-03-16T22:29:26.704Z,6.70
2023-03-16T22:31:54.994Z,6.70
2023-03-16T22:34:27.819Z,6.70
2023-03-16T22:36:55.390Z,6.70
2023-03-16T22:39:22.928Z,6.60
2023-03-16T22:41:51.233Z,6.60
2023-03-16T22:44:20.739Z,6.60
2023-03-16T22:46:46.324Z,6.60
2023-03-16T22:49:19.825Z,6.60
2023-03-16T22:51:47.466Z,6.60
2023-03-16T22:54:14.962Z,6.50
2023-03-16T22:56:42.503Z,6.50
2023-03-16T22:59:10.060Z,6.60
2023-03-16T23:01:46.318Z,6.50
2023-03-16T23:04:17.570Z,6.50
2023-03-16T23:06:45.079Z,6.50
2023-03-16T23:09:15.722Z,6.50
2023-03-16T23:11:43.690Z,6.50
2023-03-16T23:14:11.881Z,6.40
2023-03-16T23:16:40.329Z,6.30
2023-03-16T23:19:24.795Z,6.30
2023-03-16T23:21:50.882Z,6.30
2023-03-16T23:24:18.430Z,6.30
2023-03-16T23:26:46.780Z,6.30
2023-03-16T23:29:14.306Z,6.30
2023-03-16T23:31:41.861Z,6.30
2023-03-16T23:34:10.213Z,6.30
2023-03-16T23:36:37.744Z,6.50
2023-03-16T23:39:06.048Z,6.50
2023-03-16T23:41:33.923Z,6.50
2023-03-16T23:44:01.444Z,6.40
2023-03-16T23:46:29.837Z,6.40
2023-03-16T23:48:57.310Z,6.30
2023-03-16T23:51:27.536Z,6.30
2023-03-16T23:53:55.087Z,6.30
2023-03-16T23:56:23.425Z,6.30
2023-03-16T23:58:50.980Z,6.30
